Terminal Aerodrome Forecast
Issued by NWS Jackson, KY

Home | Current Version | Previous Version | Text Only | Print | Product List | Glossary On
Versions: 1 2 3 4 5 6 7 8 9 10 11 12 13 14 15 16 17 18 19 20 21 22 23 24 25 26 27
403
FTUS43 KJKL 241312 AAB
TAFJKL
TAF AMD
KJKL 241312Z 2413/2512 06004KT P6SM OVC010
      TEMPO 2413/2414 OVC008
     FM241400 06005KT P6SM VCSH BKN020
     FM241900 07005KT P6SM OVC025
     FM242000 06006KT P6SM OVC035=

USA.gov is the U.S. government's official web portal to all federal, state and local government web resources and services.